createdAt,value
2023-03-25T00:00:26.956Z,971.51
2023-03-25T00:01:26.945Z,971.46
2023-03-25T00:02:27.001Z,971.31
2023-03-25T00:03:26.946Z,971.35
2023-03-25T00:04:26.921Z,971.29
2023-03-25T00:05:26.888Z,971.25
2023-03-25T00:06:26.885Z,971.38
2023-03-25T00:07:26.859Z,971.45
2023-03-25T00:08:26.849Z,971.48
2023-03-25T00:09:26.831Z,971.54
2023-03-25T00:10:26.822Z,971.49
2023-03-25T00:11:26.811Z,971.42
2023-03-25T00:12:26.792Z,971.17
2023-03-25T00:13:26.783Z,971.18
2023-03-25T00:14:26.764Z,971.36
2023-03-25T00:15:26.767Z,971.32
2023-03-25T00:16:26.756Z,971.29
2023-03-25T00:17:26.742Z,971.24
2023-03-25T00:18:26.711Z,971.26
2023-03-25T00:19:26.722Z,971.25
2023-03-25T00:20:26.691Z,971.32
2023-03-25T00:21:26.686Z,971.34
2023-03-25T00:22:26.658Z,971.37
2023-03-25T00:23:26.652Z,971.40
2023-03-25T00:24:26.635Z,971.39
2023-03-25T00:25:26.620Z,971.41
2023-03-25T00:26:26.608Z,971.40
2023-03-25T00:27:26.586Z,971.33
2023-03-25T00:28:26.575Z,971.53
2023-03-25T00:29:26.562Z,971.40
2023-03-25T00:30:26.545Z,971.43
2023-03-25T00:31:26.745Z,971.37
2023-03-25T00:32:26.532Z,971.29
2023-03-25T00:33:26.513Z,971.37
2023-03-25T00:34:26.496Z,971.38
2023-03-25T00:35:26.508Z,971.36
2023-03-25T00:36:26.471Z,971.35
2023-03-25T00:37:26.451Z,971.39
2023-03-25T00:38:26.446Z,971.37
2023-03-25T00:39:26.428Z,971.38
2023-03-25T00:40:26.419Z,971.34
2023-03-25T00:41:26.397Z,971.40
2023-03-25T00:42:26.673Z,971.34
2023-03-25T00:43:26.369Z,971.35
2023-03-25T00:44:26.364Z,971.19
2023-03-25T00:45:26.347Z,971.24
2023-03-25T00:46:26.376Z,971.18
2023-03-25T00:47:26.337Z,971.24
2023-03-25T00:48:26.316Z,971.23
2023-03-25T00:49:26.289Z,971.23
2023-03-25T00:50:26.292Z,971.20
2023-03-25T00:51:26.376Z,971.14
2023-03-25T00:52:26.250Z,971.14
2023-03-25T00:53:26.240Z,971.12
2023-03-25T00:54:26.219Z,971.14
2023-03-25T00:55:26.214Z,971.09
2023-03-25T00:56:26.195Z,970.95
2023-03-25T00:57:26.200Z,970.93
2023-03-25T00:58:26.165Z,970.99
2023-03-25T00:59:26.156Z,971.03
2023-03-25T01:00:26.139Z,970.99
2023-03-25T01:01:26.200Z,971.01
2023-03-25T01:02:26.145Z,970.96
2023-03-25T01:03:26.181Z,970.94
2023-03-25T01:04:26.089Z,970.91
2023-03-25T01:05:26.070Z,970.90
2023-03-25T01:06:26.065Z,970.86
2023-03-25T01:07:26.071Z,970.85
2023-03-25T01:08:26.054Z,970.90
2023-03-25T01:09:26.020Z,970.92
2023-03-25T01:10:26.003Z,971.01
2023-03-25T01:11:25.992Z,970.99
2023-03-25T01:12:25.974Z,970.97
2023-03-25T01:13:25.964Z,971.03
2023-03-25T01:14:25.950Z,971.12
2023-03-25T01:15:25.931Z,971.13
2023-03-25T01:16:25.942Z,971.12
2023-03-25T01:17:25.943Z,971.08
2023-03-25T01:18:25.900Z,971.05
2023-03-25T01:19:25.879Z,971.10
2023-03-25T01:20:25.868Z,971.08
2023-03-25T01:21:25.855Z,971.06
2023-03-25T01:22:25.836Z,970.99
2023-03-25T01:23:25.851Z,971.12
2023-03-25T01:24:25.821Z,971.00
2023-03-25T01:25:25.797Z,971.13
2023-03-25T01:26:25.793Z,971.03
2023-03-25T01:27:25.773Z,971.01
2023-03-25T01:28:25.750Z,971.05
2023-03-25T01:29:25.749Z,970.98
2023-03-25T01:30:25.724Z,970.96
2023-03-25T01:31:25.743Z,970.99
2023-03-25T01:32:25.712Z,970.94
2023-03-25T01:33:25.687Z,970.93
2023-03-25T01:34:25.667Z,970.97
2023-03-25T01:35:25.664Z,970.88
2023-03-25T01:36:25.644Z,970.83
2023-03-25T01:37:25.668Z,970.77
2023-03-25T01:38:25.667Z,970.87
2023-03-25T01:39:25.635Z,970.94
2023-03-25T01:40:25.591Z,970.86
2023-03-25T01:41:29.180Z,970.86
2023-03-25T01:42:26.586Z,970.94
2023-03-25T01:43:25.544Z,970.93
2023-03-25T01:44:25.534Z,970.91
2023-03-25T01:45:25.514Z,970.96
2023-03-25T01:46:25.534Z,970.90
2023-03-25T01:50:21.392Z,970.80
2023-03-25T01:51:21.382Z,970.77
2023-03-25T01:52:21.358Z,970.71
2023-03-25T01:53:21.349Z,970.68
2023-03-25T01:54:21.358Z,970.68
2023-03-25T01:55:21.355Z,970.73
2023-03-25T01:56:21.308Z,970.61
2023-03-25T01:57:21.292Z,970.62
2023-03-25T01:58:21.289Z,970.56
2023-03-25T01:59:21.268Z,970.58
2023-03-25T02:00:21.254Z,970.58
2023-03-25T02:01:21.270Z,970.54
2023-03-25T02:02:21.247Z,970.57
2023-03-25T02:03:21.267Z,970.56
2023-03-25T02:04:21.200Z,970.51
2023-03-25T02:05:21.191Z,970.49
2023-03-25T02:06:21.171Z,970.43
2023-03-25T02:07:21.163Z,970.47
2023-03-25T02:08:21.134Z,970.46
2023-03-25T02:09:21.129Z,970.50
2023-03-25T02:10:21.115Z,970.47
2023-03-25T02:11:21.129Z,970.44
2023-03-25T02:12:21.089Z,970.45
2023-03-25T02:13:21.070Z,970.55
2023-03-25T02:14:21.073Z,970.55
2023-03-25T02:15:21.059Z,970.60
2023-03-25T02:16:21.076Z,970.45
2023-03-25T02:17:21.017Z,970.54
2023-03-25T02:18:21.003Z,970.57
2023-03-25T02:19:20.995Z,970.59
2023-03-25T02:20:20.979Z,970.52
2023-03-25T02:21:20.967Z,970.56
2023-03-25T02:22:20.984Z,970.52
2023-03-25T02:23:20.936Z,970.54
2023-03-25T02:24:20.921Z,970.59
2023-03-25T02:25:20.909Z,970.52
2023-03-25T02:26:20.892Z,970.61
2023-03-25T02:27:20.904Z,970.76
2023-03-25T02:28:20.862Z,970.63
2023-03-25T02:29:20.860Z,970.68
2023-03-25T02:30:20.885Z,970.74
2023-03-25T02:31:20.879Z,970.74
2023-03-25T02:32:20.810Z,970.80
2023-03-25T02:33:20.804Z,970.79
2023-03-25T02:34:20.779Z,970.78
2023-03-25T02:35:20.780Z,970.77
2023-03-25T02:36:20.751Z,970.84
2023-03-25T02:37:20.739Z,970.88
2023-03-25T02:38:20.744Z,970.93
2023-03-25T02:39:20.713Z,971.01
2023-03-25T02:40:20.730Z,970.93
2023-03-25T02:41:20.701Z,970.93
2023-03-25T02:42:20.766Z,971.05
2023-03-25T02:43:20.752Z,971.06
2023-03-25T02:44:20.644Z,971.24
2023-03-25T02:45:20.663Z,971.19
2023-03-25T02:46:20.625Z,971.27
2023-03-25T02:47:20.786Z,971.34
2023-03-25T02:48:20.584Z,971.37
2023-03-25T02:49:20.572Z,971.41
2023-03-25T02:50:20.565Z,971.58
2023-03-25T02:51:20.548Z,971.50
2023-03-25T02:52:20.735Z,971.64
2023-03-25T02:53:20.523Z,971.37
2023-03-25T02:54:20.505Z,971.42
2023-03-25T02:55:20.727Z,971.49
2023-03-25T02:56:20.483Z,971.46
2023-03-25T02:57:20.669Z,971.55
2023-03-25T02:58:20.456Z,971.56
2023-03-25T02:59:20.460Z,971.47
2023-03-25T03:00:20.433Z,971.09
2023-03-25T03:01:20.646Z,971.09
2023-03-25T03:02:20.763Z,971.05
2023-03-25T03:03:20.486Z,970.96
2023-03-25T03:04:20.371Z,970.92
2023-03-25T03:05:20.357Z,970.87
2023-03-25T03:06:20.345Z,970.75
2023-03-25T03:07:20.336Z,970.92
2023-03-25T03:08:20.332Z,971.00
2023-03-25T03:09:20.333Z,971.11
2023-03-25T03:10:20.289Z,971.07
2023-03-25T03:11:20.275Z,971.25
2023-03-25T03:12:20.269Z,971.26
2023-03-25T03:13:20.258Z,971.17
2023-03-25T03:14:20.240Z,971.33
2023-03-25T03:15:20.252Z,971.23
2023-03-25T03:16:20.238Z,971.19
2023-03-25T03:17:20.416Z,971.28
2023-03-25T03:18:20.313Z,971.25
2023-03-25T03:19:20.172Z,971.26
2023-03-25T03:20:20.200Z,971.20
2023-03-25T03:21:20.142Z,971.18
2023-03-25T03:22:20.131Z,971.22
2023-03-25T03:23:20.113Z,971.27
2023-03-25T03:24:20.107Z,971.34
2023-03-25T03:25:20.121Z,971.33
2023-03-25T03:26:20.073Z,971.32
2023-03-25T03:27:20.314Z,971.21
2023-03-25T03:28:20.055Z,971.26
2023-03-25T03:29:20.041Z,971.22
2023-03-25T03:30:20.026Z,971.20
2023-03-25T03:31:59.201Z,971.24
2023-03-25T03:32:21.065Z,971.13
2023-03-25T03:33:19.985Z,971.08
2023-03-25T03:34:19.971Z,971.02
2023-03-25T03:35:19.995Z,970.99
2023-03-25T03:36:19.949Z,971.04
2023-03-25T03:37:19.932Z,971.07
2023-03-25T03:38:19.918Z,971.11
2023-03-25T03:39:19.900Z,971.10
2023-03-25T03:40:19.990Z,971.08
2023-03-25T03:41:19.895Z,971.09
2023-03-25T03:42:19.870Z,971.06
2023-03-25T03:43:20.152Z,971.12
2023-03-25T03:44:19.843Z,971.11
2023-03-25T03:45:19.829Z,971.06
2023-03-25T03:46:20.068Z,971.06
2023-03-25T03:47:19.824Z,971.00
2023-03-25T03:48:19.787Z,971.02
2023-03-25T03:49:20.168Z,970.98
2023-03-25T03:50:19.757Z,970.94
2023-03-25T03:51:19.748Z,971.03
2023-03-25T03:52:19.930Z,971.10
2023-03-25T03:53:19.714Z,971.04
2023-03-25T03:54:19.707Z,971.02
2023-03-25T03:55:19.711Z,971.01
2023-03-25T03:56:19.685Z,970.97
2023-03-25T03:57:19.665Z,970.95
2023-03-25T03:58:19.655Z,971.05
2023-03-25T03:59:19.644Z,971.05
2023-03-25T04:00:19.636Z,971.09
2023-03-25T04:01:20.311Z,971.06
2023-03-25T04:02:19.617Z,971.08
2023-03-25T04:03:19.673Z,971.01
2023-03-25T04:04:19.569Z,971.07
2023-03-25T04:05:19.552Z,971.00
2023-03-25T04:06:19.541Z,971.02
2023-03-25T04:07:19.561Z,971.03
2023-03-25T04:08:19.515Z,971.11
2023-03-25T04:09:19.511Z,971.05
2023-03-25T04:10:19.494Z,971.11
2023-03-25T04:11:19.476Z,971.07
2023-03-25T04:12:19.464Z,971.02
2023-03-25T04:13:19.473Z,971.02
2023-03-25T04:14:19.440Z,971.00
2023-03-25T04:15:19.415Z,970.97
2023-03-25T04:16:19.452Z,971.06
2023-03-25T04:17:19.404Z,971.00
2023-03-25T04:18:19.390Z,970.96
2023-03-25T04:19:19.399Z,970.99
2023-03-25T04:20:19.366Z,970.92
2023-03-25T04:21:19.344Z,970.96
2023-03-25T04:22:19.330Z,970.96
2023-03-25T04:23:19.318Z,970.92
2023-03-25T04:24:19.303Z,970.95
2023-03-25T04:25:19.288Z,971.02
2023-03-25T04:26:19.271Z,971.05
2023-03-25T04:27:19.255Z,971.02
2023-03-25T04:28:19.243Z,971.09
2023-03-25T04:29:19.238Z,971.13
2023-03-25T04:30:19.334Z,971.13
2023-03-25T04:31:19.217Z,971.18
2023-03-25T04:32:19.213Z,971.10
2023-03-25T04:33:19.178Z,971.12
2023-03-25T04:34:19.172Z,971.11
2023-03-25T04:35:19.187Z,971.12
2023-03-25T04:36:19.370Z,971.18
2023-03-25T04:37:19.122Z,971.18
2023-03-25T04:38:19.117Z,971.17
2023-03-25T04:39:19.098Z,971.15
2023-03-25T04:40:19.122Z,971.13
2023-03-25T04:41:19.117Z,971.18
2023-03-25T04:42:19.078Z,971.20
2023-03-25T04:43:19.054Z,971.15
2023-03-25T04:44:19.024Z,971.12
2023-03-25T04:45:19.009Z,971.15
2023-03-25T04:46:19.020Z,971.11
2023-03-25T04:47:19.002Z,971.15
2023-03-25T04:48:18.977Z,971.10
2023-03-25T04:49:18.972Z,971.18
2023-03-25T04:50:18.963Z,971.28
2023-03-25T04:51:18.953Z,971.24
2023-03-25T04:52:18.937Z,971.28
2023-03-25T04:53:18.970Z,971.34
2023-03-25T04:54:18.899Z,971.30
2023-03-25T04:55:18.883Z,971.40
2023-03-25T04:56:18.883Z,971.38
2023-03-25T04:57:18.867Z,971.38
2023-03-25T04:58:18.854Z,971.38
2023-03-25T04:59:18.838Z,971.41
2023-03-25T05:00:18.819Z,971.42
2023-03-25T05:01:18.832Z,971.48
2023-03-25T05:02:18.806Z,971.52
2023-03-25T05:03:18.775Z,971.47
2023-03-25T05:04:18.805Z,971.48
2023-03-25T05:05:18.810Z,971.54
2023-03-25T05:06:18.728Z,971.50
2023-03-25T05:07:18.759Z,971.52
2023-03-25T05:08:18.705Z,971.56
2023-03-25T05:09:18.690Z,971.51
2023-03-25T05:10:18.676Z,971.45
2023-03-25T05:11:18.660Z,971.45
2023-03-25T05:12:18.654Z,971.47
2023-03-25T05:13:18.639Z,971.44
2023-03-25T05:14:18.634Z,971.53
2023-03-25T05:15:18.608Z,971.51
2023-03-25T05:16:18.634Z,971.54
2023-03-25T05:17:18.585Z,971.64
2023-03-25T05:18:18.576Z,971.66
2023-03-25T05:19:18.569Z,971.64
2023-03-25T05:20:18.546Z,971.63
2023-03-25T05:21:18.527Z,971.61
2023-03-25T05:22:18.518Z,971.58
2023-03-25T05:23:18.532Z,971.64
2023-03-25T05:24:18.496Z,971.66
2023-03-25T05:25:18.478Z,971.58
2023-03-25T05:26:18.464Z,971.60
2023-03-25T05:27:18.451Z,971.60
2023-03-25T05:28:18.443Z,971.64
2023-03-25T05:29:18.423Z,971.66
2023-03-25T05:30:18.424Z,971.64
2023-03-25T05:31:18.435Z,971.64
2023-03-25T05:32:18.395Z,971.64
2023-03-25T05:33:18.368Z,971.65
2023-03-25T05:34:18.388Z,971.65
2023-03-25T05:35:18.339Z,971.64
2023-03-25T05:36:18.328Z,971.55
2023-03-25T05:37:18.321Z,971.61
2023-03-25T05:38:18.320Z,971.44
2023-03-25T05:39:18.307Z,971.49
2023-03-25T05:40:18.281Z,971.46
2023-03-25T05:41:18.267Z,971.54
2023-03-25T05:42:18.252Z,971.47
2023-03-25T05:43:18.237Z,971.48
2023-03-25T05:44:18.225Z,971.52
2023-03-25T05:45:18.210Z,971.45
2023-03-25T05:46:18.237Z,971.53
2023-03-25T05:47:18.175Z,971.56
2023-03-25T05:48:18.168Z,971.64
2023-03-25T05:49:18.160Z,971.61
2023-03-25T05:50:18.139Z,971.77
2023-03-25T05:51:18.142Z,971.71
2023-03-25T05:52:18.116Z,971.73
2023-03-25T05:53:18.096Z,971.80
2023-03-25T05:54:18.096Z,971.74
2023-03-25T05:55:20.571Z,971.77
2023-03-25T05:56:18.062Z,971.77
2023-03-25T05:57:18.046Z,971.76
2023-03-25T05:58:18.045Z,971.78
2023-03-25T05:59:18.024Z,971.84
2023-03-25T06:00:18.006Z,971.84
2023-03-25T06:01:32.042Z,971.95
2023-03-25T06:02:19.083Z,971.93
2023-03-25T06:03:18.077Z,971.95
2023-03-25T06:04:18.022Z,971.90
2023-03-25T06:05:17.938Z,971.96
2023-03-25T06:06:17.923Z,971.99
2023-03-25T06:07:17.909Z,971.99
2023-03-25T06:08:17.896Z,971.97
2023-03-25T06:09:17.896Z,972.02
2023-03-25T06:10:17.885Z,971.99
2023-03-25T06:11:17.880Z,972.04
2023-03-25T06:12:17.870Z,971.94
2023-03-25T06:13:17.826Z,971.93
2023-03-25T06:14:17.824Z,971.98
2023-03-25T06:15:17.797Z,971.97
2023-03-25T06:16:17.816Z,971.94
2023-03-25T06:17:17.769Z,971.90
2023-03-25T06:18:17.760Z,972.05
2023-03-25T06:19:17.742Z,971.99
2023-03-25T06:20:17.731Z,972.00
2023-03-25T06:21:17.718Z,972.05
2023-03-25T06:22:17.706Z,972.04
2023-03-25T06:23:17.981Z,972.06
2023-03-25T06:24:17.675Z,971.96
2023-03-25T06:25:17.676Z,971.99
2023-03-25T06:26:17.658Z,971.89
2023-03-25T06:27:17.662Z,971.94
2023-03-25T06:28:17.622Z,971.86
2023-03-25T06:29:17.609Z,971.87
2023-03-25T06:30:17.593Z,971.88
2023-03-25T06:31:17.610Z,971.86
2023-03-25T06:32:17.563Z,971.92
2023-03-25T06:33:17.558Z,971.84
2023-03-25T06:34:18.560Z,971.80
2023-03-25T06:35:17.521Z,971.79
2023-03-25T06:36:17.528Z,971.80
2023-03-25T06:37:17.510Z,971.71
2023-03-25T06:38:17.489Z,971.68
2023-03-25T06:39:17.472Z,971.62
2023-03-25T06:40:17.466Z,971.59
2023-03-25T06:41:17.438Z,971.51
2023-03-25T06:42:17.438Z,971.63
2023-03-25T06:43:17.471Z,971.62
2023-03-25T06:44:17.408Z,971.54
2023-03-25T06:45:18.421Z,971.44
2023-03-25T06:46:17.449Z,971.47
2023-03-25T06:47:17.368Z,971.47
2023-03-25T06:48:17.351Z,971.47
2023-03-25T06:49:17.346Z,971.41
2023-03-25T06:50:17.321Z,971.42
2023-03-25T06:51:17.301Z,971.42
2023-03-25T06:52:17.296Z,971.47
2023-03-25T06:53:17.299Z,971.50
2023-03-25T06:54:17.270Z,971.58
2023-03-25T06:55:17.257Z,971.44
2023-03-25T06:56:18.586Z,971.63
2023-03-25T06:57:17.223Z,971.42
2023-03-25T06:58:17.215Z,971.49
2023-03-25T06:59:17.234Z,971.38
2023-03-25T07:00:17.190Z,971.37
2023-03-25T07:01:17.333Z,971.39
2023-03-25T07:02:17.164Z,971.33
2023-03-25T07:03:17.146Z,971.53
2023-03-25T07:04:19.139Z,971.33
2023-03-25T07:05:17.164Z,971.42
2023-03-25T07:06:17.105Z,971.49
2023-03-25T07:07:17.094Z,971.54
2023-03-25T07:08:17.096Z,971.52
2023-03-25T07:09:17.074Z,971.51
2023-03-25T07:10:17.049Z,971.50
2023-03-25T07:11:17.040Z,971.51
2023-03-25T07:12:17.024Z,971.56
2023-03-25T07:13:17.024Z,971.56
2023-03-25T07:14:16.999Z,971.53
2023-03-25T07:15:17.012Z,971.58
2023-03-25T07:16:17.040Z,971.57
2023-03-25T07:17:16.957Z,971.60
2023-03-25T07:18:16.947Z,971.54
2023-03-25T07:19:17.289Z,971.58
2023-03-25T07:20:17.217Z,971.54
2023-03-25T07:21:16.901Z,971.59
2023-03-25T07:22:16.897Z,971.64
2023-03-25T07:23:16.876Z,971.63
2023-03-25T07:24:16.866Z,971.51
2023-03-25T07:25:16.850Z,971.54
2023-03-25T07:26:16.836Z,971.51
2023-03-25T07:27:16.839Z,971.55
2023-03-25T07:28:16.807Z,971.53
2023-03-25T07:29:16.805Z,971.51
2023-03-25T07:30:16.985Z,971.46
2023-03-25T07:31:16.919Z,971.28
2023-03-25T07:32:16.764Z,971.39
2023-03-25T07:33:16.778Z,971.36
2023-03-25T07:34:16.731Z,971.38
2023-03-25T07:35:16.738Z,971.25
2023-03-25T07:36:16.704Z,971.25
2023-03-25T07:37:16.692Z,971.38
2023-03-25T07:38:16.677Z,971.38
2023-03-25T07:39:16.691Z,971.35
2023-03-25T07:40:16.651Z,971.36
2023-03-25T07:41:16.633Z,971.28
2023-03-25T07:42:16.619Z,971.35
2023-03-25T07:43:16.609Z,971.29
2023-03-25T07:44:18.218Z,971.38
2023-03-25T07:45:16.582Z,971.33
2023-03-25T07:46:16.588Z,971.16
2023-03-25T07:47:16.576Z,971.23
2023-03-25T07:48:16.558Z,971.23
2023-03-25T07:49:16.526Z,971.15
2023-03-25T07:50:16.513Z,971.15
2023-03-25T07:51:16.514Z,971.07
2023-03-25T07:52:16.491Z,971.13
2023-03-25T07:53:16.466Z,971.10
2023-03-25T07:54:16.460Z,971.06
2023-03-25T07:55:16.450Z,971.10
2023-03-25T07:56:16.432Z,971.36
2023-03-25T07:57:16.419Z,971.13
2023-03-25T07:58:16.401Z,971.09
2023-03-25T07:59:16.390Z,971.19
2023-03-25T08:00:16.376Z,971.18
2023-03-25T08:01:16.360Z,971.29
2023-03-25T08:02:16.378Z,971.29
2023-03-25T08:03:16.437Z,971.42
2023-03-25T08:04:16.326Z,971.46
2023-03-25T08:05:16.340Z,971.49
2023-03-25T08:06:16.296Z,971.44
2023-03-25T08:07:16.280Z,971.41
2023-03-25T08:08:16.277Z,971.51
2023-03-25T08:09:16.803Z,971.38
2023-03-25T08:10:16.240Z,971.43
2023-03-25T08:11:16.227Z,971.48
2023-03-25T08:12:16.215Z,971.45
2023-03-25T08:13:16.202Z,971.36
2023-03-25T08:14:16.186Z,971.34
2023-03-25T08:15:16.173Z,971.35
2023-03-25T08:16:16.178Z,971.42
2023-03-25T08:17:16.143Z,971.46
2023-03-25T08:18:16.124Z,971.48
2023-03-25T08:19:16.137Z,971.49
2023-03-25T08:20:16.105Z,971.41
2023-03-25T08:21:16.106Z,971.46
2023-03-25T08:22:16.077Z,971.48
2023-03-25T08:23:17.497Z,971.49
2023-03-25T08:24:16.043Z,971.45
2023-03-25T08:25:16.058Z,971.39
2023-03-25T08:26:16.015Z,971.39
2023-03-25T08:27:16.460Z,971.41
2023-03-25T08:28:15.997Z,971.42
2023-03-25T08:29:16.541Z,971.42
2023-03-25T08:30:15.963Z,971.44
2023-03-25T08:31:15.981Z,971.40
2023-03-25T08:32:15.933Z,971.44
2023-03-25T08:33:15.920Z,971.41
2023-03-25T08:34:15.900Z,971.40
2023-03-25T08:35:15.908Z,971.44
2023-03-25T08:36:15.877Z,971.40
2023-03-25T08:37:15.871Z,971.44
2023-03-25T08:38:15.848Z,971.47
2023-03-25T08:39:15.833Z,971.50
2023-03-25T08:40:15.817Z,971.53
2023-03-25T08:41:15.806Z,971.52
2023-03-25T08:42:15.794Z,971.46
2023-03-25T08:43:15.797Z,971.44
2023-03-25T08:44:15.763Z,971.44
2023-03-25T08:45:15.759Z,971.51
2023-03-25T08:46:15.775Z,971.37
2023-03-25T08:47:15.753Z,971.44
2023-03-25T08:48:15.719Z,971.36
2023-03-25T08:49:15.705Z,971.35
2023-03-25T08:50:15.686Z,971.37
2023-03-25T08:51:15.713Z,971.40
2023-03-25T08:52:15.655Z,971.39
2023-03-25T08:53:15.648Z,971.35
2023-03-25T08:54:15.679Z,971.35
2023-03-25T08:55:15.615Z,971.27
2023-03-25T08:56:15.606Z,971.34
2023-03-25T08:57:15.685Z,971.34
2023-03-25T08:58:15.681Z,971.35
2023-03-25T08:59:15.623Z,971.23
2023-03-25T09:00:15.663Z,971.17
2023-03-25T09:01:15.573Z,971.45
2023-03-25T09:02:15.624Z,971.35
2023-03-25T09:03:15.508Z,971.20
2023-03-25T09:04:15.498Z,971.12
2023-03-25T09:05:15.522Z,971.24
2023-03-25T09:06:15.475Z,971.21
2023-03-25T09:07:15.491Z,971.18
2023-03-25T09:08:15.448Z,971.16
2023-03-25T09:09:15.581Z,971.12
2023-03-25T09:10:15.772Z,971.15
2023-03-25T09:11:19.721Z,971.21
2023-03-25T09:12:16.417Z,971.07
2023-03-25T09:13:15.378Z,971.08
2023-03-25T09:14:15.358Z,971.10
2023-03-25T09:15:15.354Z,971.16
2023-03-25T09:16:15.370Z,971.13
2023-03-25T09:17:15.318Z,971.19
2023-03-25T09:18:15.306Z,971.20
2023-03-25T09:19:15.290Z,971.22
2023-03-25T09:20:15.281Z,971.09
2023-03-25T09:21:15.260Z,971.31
2023-03-25T09:22:15.259Z,971.28
2023-03-25T09:23:15.262Z,971.20
2023-03-25T09:24:15.226Z,971.21
2023-03-25T09:25:15.221Z,971.11
2023-03-25T09:26:15.199Z,971.14
2023-03-25T09:27:15.195Z,971.21
2023-03-25T09:28:15.178Z,971.09
2023-03-25T09:29:15.173Z,971.10
2023-03-25T09:30:15.139Z,971.15
2023-03-25T09:31:15.218Z,971.22
2023-03-25T09:32:15.126Z,971.12
2023-03-25T09:33:15.101Z,971.09
2023-03-25T09:34:16.152Z,971.14
2023-03-25T09:35:15.073Z,971.07
2023-03-25T09:36:15.071Z,971.05
2023-03-25T09:37:15.166Z,971.05
2023-03-25T09:38:15.034Z,971.18
2023-03-25T09:39:15.054Z,971.17
2023-03-25T09:40:15.000Z,971.18
2023-03-25T09:41:15.437Z,971.12
2023-03-25T09:42:14.974Z,971.16
2023-03-25T09:43:15.163Z,970.94
2023-03-25T09:44:14.945Z,970.97
2023-03-25T09:45:14.947Z,970.95
2023-03-25T09:46:14.951Z,971.01
2023-03-25T09:47:15.619Z,970.93
2023-03-25T09:48:14.894Z,971.03
2023-03-25T09:49:14.886Z,971.03
2023-03-25T09:50:14.866Z,971.05
2023-03-25T09:51:14.908Z,970.91
2023-03-25T09:52:14.904Z,970.94
2023-03-25T09:53:14.914Z,971.06
2023-03-25T09:54:14.890Z,970.99
2023-03-25T09:55:14.824Z,971.11
2023-03-25T09:56:14.802Z,971.12
2023-03-25T09:57:14.870Z,971.17
2023-03-25T09:58:14.813Z,971.22
2023-03-25T09:59:14.830Z,971.16
2023-03-25T10:00:14.796Z,970.99
2023-03-25T10:01:14.828Z,971.26
2023-03-25T10:02:14.853Z,971.18
2023-03-25T10:03:14.741Z,971.29
2023-03-25T10:04:14.685Z,971.28
2023-03-25T10:05:14.724Z,971.25
2023-03-25T10:06:14.670Z,971.32
2023-03-25T10:07:14.645Z,971.32
2023-03-25T10:08:14.633Z,971.28
2023-03-25T10:09:14.612Z,971.32
2023-03-25T10:10:14.614Z,971.28
2023-03-25T10:11:14.616Z,971.39
2023-03-25T10:12:14.574Z,971.38
2023-03-25T10:13:14.572Z,971.36
2023-03-25T10:14:14.565Z,971.32
2023-03-25T10:15:14.540Z,971.39
2023-03-25T10:16:14.530Z,971.46
2023-03-25T10:17:14.515Z,971.38
2023-03-25T10:18:14.487Z,971.47
2023-03-25T10:19:14.479Z,971.57
2023-03-25T10:20:14.469Z,971.60
2023-03-25T10:21:14.450Z,971.61
2023-03-25T10:22:14.433Z,971.59
2023-03-25T10:23:14.432Z,971.56
2023-03-25T10:24:14.410Z,971.56
2023-03-25T10:25:14.402Z,971.58
2023-03-25T10:26:14.395Z,971.60
2023-03-25T10:27:14.392Z,971.61
2023-03-25T10:28:14.358Z,971.59
2023-03-25T10:29:14.342Z,971.58
2023-03-25T10:30:14.430Z,971.60
2023-03-25T10:31:14.359Z,971.65
2023-03-25T10:32:14.373Z,971.56
2023-03-25T10:33:14.297Z,971.62
2023-03-25T10:34:14.273Z,971.88
2023-03-25T10:35:14.264Z,971.41
2023-03-25T10:36:14.243Z,971.20
2023-03-25T10:37:14.259Z,971.18
2023-03-25T10:38:14.720Z,971.11
2023-03-25T10:39:14.209Z,971.07
2023-03-25T10:40:14.193Z,971.01
2023-03-25T10:41:14.182Z,970.96
2023-03-25T10:42:14.160Z,971.01
2023-03-25T10:43:14.169Z,971.07
2023-03-25T10:44:14.135Z,971.14
2023-03-25T10:45:14.142Z,971.24
2023-03-25T10:46:14.145Z,971.38
2023-03-25T10:47:14.099Z,971.34
2023-03-25T10:48:14.078Z,971.30
2023-03-25T10:49:14.072Z,971.39
2023-03-25T10:50:14.054Z,971.29
2023-03-25T10:51:14.044Z,971.41
2023-03-25T10:52:14.034Z,971.39
2023-03-25T10:53:14.118Z,971.34
2023-03-25T10:54:13.998Z,971.24
2023-03-25T10:55:13.991Z,971.29
2023-03-25T10:56:13.978Z,971.35
2023-03-25T10:57:14.003Z,971.30
2023-03-25T10:58:13.940Z,971.12
2023-03-25T10:59:13.951Z,971.05
2023-03-25T11:00:13.915Z,971.21
2023-03-25T11:01:13.924Z,971.20
2023-03-25T11:02:13.981Z,971.15
2023-03-25T11:03:13.901Z,971.27
2023-03-25T11:04:13.901Z,971.28
2023-03-25T11:05:13.845Z,971.29
2023-03-25T11:06:13.836Z,971.27
2023-03-25T11:07:13.821Z,971.31
2023-03-25T11:08:24.169Z,971.34
2023-03-25T11:09:14.831Z,971.33
2023-03-25T11:10:13.784Z,971.40
2023-03-25T11:11:13.774Z,971.48
2023-03-25T11:12:13.753Z,971.48
2023-03-25T11:13:13.765Z,971.55
2023-03-25T11:14:13.761Z,971.51
2023-03-25T11:15:13.749Z,971.59
2023-03-25T11:16:13.759Z,971.56
2023-03-25T11:17:13.690Z,971.57
2023-03-25T11:18:13.697Z,971.55
2023-03-25T11:19:13.653Z,971.45
2023-03-25T11:20:13.645Z,971.56
2023-03-25T11:21:13.640Z,971.74
2023-03-25T11:22:13.617Z,971.70
2023-03-25T11:23:13.603Z,971.66
2023-03-25T11:24:13.596Z,971.63
2023-03-25T11:25:13.575Z,971.63
2023-03-25T11:26:13.564Z,971.53
2023-03-25T11:27:13.577Z,971.70
2023-03-25T11:28:13.534Z,971.48
2023-03-25T11:29:13.534Z,971.49
2023-03-25T11:30:13.504Z,971.43
2023-03-25T11:31:13.569Z,971.38
2023-03-25T11:32:13.480Z,971.42
2023-03-25T11:33:13.492Z,971.36
2023-03-25T11:34:13.494Z,971.50
2023-03-25T11:35:13.440Z,971.51
2023-03-25T11:36:13.422Z,971.40
2023-03-25T11:37:13.414Z,971.32
2023-03-25T11:38:13.404Z,971.36
2023-03-25T11:39:13.388Z,971.39
2023-03-25T11:40:13.376Z,971.40
2023-03-25T11:41:13.357Z,971.09
2023-03-25T11:42:13.349Z,971.23
2023-03-25T11:43:13.326Z,971.01
2023-03-25T11:44:13.317Z,970.90
2023-03-25T11:45:13.304Z,971.00
2023-03-25T11:46:13.311Z,971.23
2023-03-25T11:47:13.304Z,971.14
2023-03-25T11:48:13.350Z,971.12
2023-03-25T11:49:13.254Z,971.06
2023-03-25T11:50:13.236Z,971.19
2023-03-25T11:51:13.223Z,971.14
2023-03-25T11:52:13.228Z,971.24
2023-03-25T11:53:13.192Z,971.30
2023-03-25T11:54:13.181Z,971.27
2023-03-25T11:55:13.170Z,971.28
2023-03-25T11:56:13.156Z,971.06
2023-03-25T11:57:13.190Z,971.09
2023-03-25T11:58:13.125Z,971.10
2023-03-25T11:59:13.112Z,971.07
2023-03-25T12:00:13.097Z,970.88
2023-03-25T12:01:13.116Z,970.98
2023-03-25T12:02:13.073Z,970.77
2023-03-25T12:03:13.315Z,970.74
2023-03-25T12:04:13.061Z,971.01
2023-03-25T12:05:13.415Z,970.84
2023-03-25T12:06:13.057Z,970.87
2023-03-25T12:07:13.008Z,970.80
2023-03-25T12:08:12.996Z,970.81
2023-03-25T12:09:12.993Z,970.72
2023-03-25T12:10:12.964Z,970.76
2023-03-25T12:11:12.950Z,970.71
2023-03-25T12:12:12.937Z,970.70
2023-03-25T12:13:12.929Z,970.75
2023-03-25T12:14:12.932Z,970.74
2023-03-25T12:15:12.902Z,970.68
2023-03-25T12:16:12.920Z,970.59
2023-03-25T12:17:12.875Z,970.65
2023-03-25T12:18:12.854Z,970.73
2023-03-25T12:19:12.865Z,970.75
2023-03-25T12:20:12.836Z,970.56
2023-03-25T12:21:12.816Z,970.54
2023-03-25T12:22:12.803Z,970.59
2023-03-25T12:23:12.788Z,970.61
2023-03-25T12:24:12.780Z,970.67
2023-03-25T12:25:12.759Z,970.71
2023-03-25T12:26:12.760Z,970.88
2023-03-25T12:27:12.737Z,970.84
2023-03-25T12:28:12.734Z,971.05
2023-03-25T12:29:12.714Z,971.03
2023-03-25T12:30:12.710Z,971.19
2023-03-25T12:31:12.908Z,971.12